首页
METAR-TAF:

METAR-TAF

机场 :

萨姆特, 南卡罗来纳州, 美国

纬度: 33-59-42N, 经度: 080-21-41W, 海拔: 55米

当前天气观测

该预报发布于17分钟前的19:15 UTC
风速3节,风向西
温度 30°C
湿度 59%
气压 1015 hPa
能見度: 16.1公里
天空无云

METAR: KSMS 061915Z AUTO 27003KT 10SM CLR 30/21 A2998 RMK AO2

时间: 15:32 (19:32 UTC)


TAF: 丢失

超过4000个机场的气象观测和天气预报(METAR&TAF报告)。

可查询的气象台以黄色和红色小点在地图上表示。

将鼠标移到小点上方,可查看气象台名称。

然后点击查看天气观测和预报。

如需切换地图:点击带黑十字的绿色按钮放大地图;点击带横线的绿色按钮缩小地图;或者点击绿色箭头查看邻近地区的地图。


METAR-TAF: